Time;durP1;ratioP1;P1;durP2;ratioP2;P2;SDS_P1;SDS_P2;PMS_P1;PMS_P2;Temp;Humidity;BMP_temperature;BMP_pressure;BME280_temperature;BME280_humidity;BME280_pressure;Samples;Min_cycle;Max_cycle;Signal;HPM_P1;HPM_P2
2022/04/25 00:01:13;;;;;;;18.30;2.65;;;;;;;18.23;43.50;98526.63;5004402;28;20016;-93
2022/04/25 00:03:38;;;;;;;12.82;2.70;;;;;;;18.15;43.11;98522.06;5004387;28;20480;-92
2022/04/25 00:06:05;;;;;;;11.07;2.50;;;;;;;18.21;42.92;98523.44;5002620;28;20091;-92
2022/04/25 00:08:31;;;;;;;12.13;2.85;;;;;;;18.20;42.92;98521.84;5003551;28;20487;-92
2022/04/25 00:10:57;;;;;;;16.02;3.53;;;;;;;18.17;42.99;98523.31;5004726;28;20037;-93
2022/04/25 00:13:22;;;;;;;13.45;2.65;;;;;;;18.16;43.19;98523.66;5003506;28;20021;-93
2022/04/25 00:15:48;;;;;;;14.73;2.75;;;;;;;18.12;43.13;98511.84;5003357;28;20060;-93
2022/04/25 00:18:13;;;;;;;13.90;3.10;;;;;;;18.09;42.93;98512.53;5004094;28;20025;-93
2022/04/25 00:20:38;;;;;;;13.98;2.75;;;;;;;18.12;42.97;98520.03;5004151;28;20025;-93
2022/04/25 00:23:05;;;;;;;18.42;3.30;;;;;;;18.15;43.08;98528.31;5020510;28;20045;-93
2022/04/25 00:25:34;;;;;;;12.95;2.92;;;;;;;18.11;43.41;98521.94;5018778;28;20025;-93
2022/04/25 00:28:00;;;;;;;21.02;2.97;;;;;;;18.04;42.90;98523.66;5003462;28;20021;-92
2022/04/25 00:30:25;;;;;;;21.00;3.20;;;;;;;18.04;42.99;98516.28;5004118;28;20021;-91
2022/04/25 00:32:51;;;;;;;11.82;3.00;;;;;;;18.01;43.25;98519.66;5020089;28;20056;-92
2022/04/25 00:35:17;;;;;;;14.30;3.17;;;;;;;17.94;42.89;98519.44;5018485;28;20029;-92
2022/04/25 00:37:42;;;;;;;14.32;3.05;;;;;;;18.05;42.67;98514.34;5003362;28;20028;-91
2022/04/25 00:40:09;;;;;;;13.90;2.70;;;;;;;18.05;42.56;98520.56;5020813;28;20026;-92
2022/04/25 00:42:35;;;;;;;11.25;3.28;;;;;;;18.00;43.13;98509.13;5019875;28;20044;-92
2022/04/25 00:45:00;;;;;;;11.13;2.60;;;;;;;18.02;43.04;98517.75;5019026;28;20046;-92
2022/04/25 00:47:26;;;;;;;18.02;2.95;;;;;;;17.99;43.18;98505.56;5002545;28;20090;-91
2022/04/25 00:49:52;;;;;;;18.48;3.08;;;;;;;17.97;42.79;98518.75;5003380;28;20033;-92
2022/04/25 00:52:17;;;;;;;12.30;2.92;;;;;;;17.90;42.80;98499.44;5019417;28;20064;-91
2022/04/25 00:54:43;;;;;;;11.38;2.70;;;;;;;17.93;43.10;98507.75;5019814;28;20037;-90
2022/04/25 00:57:09;;;;;;;20.35;3.08;;;;;;;17.84;43.13;98501.59;5001462;28;20037;-91
2022/04/25 00:59:34;;;;;;;22.88;3.08;;;;;;;17.84;42.72;98501.59;5002826;28;20029;-91
2022/04/25 01:02:00;;;;;;;16.67;2.90;;;;;;;17.91;42.87;98511.94;5018891;28;20033;-92
2022/04/25 01:04:25;;;;;;;18.40;3.42;;;;;;;17.84;43.05;98506.25;5002236;28;20033;-91
2022/04/25 01:06:51;;;;;;;12.27;2.75;;;;;;;17.85;42.77;98507.84;5019538;28;20361;-92
2022/04/25 01:09:16;;;;;;;13.68;2.92;;;;;;;17.91;43.29;98512.75;5018951;28;20405;-91
2022/04/25 01:11:41;;;;;;;18.58;3.17;;;;;;;17.82;43.18;98501.09;5019657;28;20025;-94
2022/04/25 01:14:11;;;;;;;14.10;2.95;;;;;;;17.81;43.26;98499.53;5019901;28;20029;-91
2022/04/25 01:16:37;;;;;;;12.60;3.03;;;;;;;17.85;43.28;98497.75;5001690;28;20026;-91
2022/04/25 01:19:02;;;;;;;10.55;2.50;;;;;;;17.81;43.01;98494.09;5003046;28;20032;-91
2022/04/25 01:21:28;;;;;;;14.52;3.25;;;;;;;17.85;43.16;98505.91;5019832;28;20083;-91
2022/04/25 01:29:21;;;;;;;12.23;3.03;;;;;;;17.82;43.22;98492.16;5022992;28;20134;-90
2022/04/25 01:31:46;;;;;;;18.58;3.30;;;;;;;17.86;43.09;98495.81;5002005;28;20025;-91
2022/04/25 01:34:12;;;;;;;19.98;3.08;;;;;;;17.90;43.03;98488.56;5018705;28;20033;-92
2022/04/25 01:36:37;;;;;;;18.40;3.35;;;;;;;17.91;43.04;98501.84;5002690;28;20026;-93
2022/04/25 01:39:03;;;;;;;15.80;3.22;;;;;;;17.87;43.26;98487.31;5002010;28;20391;-92
2022/04/25 01:41:30;;;;;;;18.77;4.00;;;;;;;17.88;42.96;98488.09;5017724;28;20420;-93
2022/04/25 01:43:56;;;;;;;20.77;3.70;;;;;;;17.96;43.36;98487.22;5018888;28;20032;-93
2022/04/25 01:46:21;;;;;;;19.55;2.97;;;;;;;17.94;43.17;98484.81;5001998;28;20046;-93
2022/04/25 01:48:46;;;;;;;12.77;3.00;;;;;;;17.98;42.70;98491.16;5002196;28;20025;-91
2022/04/25 01:51:12;;;;;;;18.70;3.13;;;;;;;17.91;43.26;98480.06;5000899;28;20091;-93
2022/04/25 01:53:38;;;;;;;20.92;3.58;;;;;;;17.95;43.14;98482.88;5002334;28;20119;-92
2022/04/25 01:56:05;;;;;;;22.55;3.08;;;;;;;17.92;43.00;98489.81;5018803;28;20095;-92
2022/04/25 01:58:31;;;;;;;17.58;3.42;;;;;;;17.86;43.36;98480.25;5018942;28;20065;-91
2022/04/25 02:00:56;;;;;;;14.65;3.70;;;;;;;17.90;43.10;98494.78;5002441;28;20037;-89
2022/04/25 02:03:22;;;;;;;18.00;3.40;;;;;;;17.87;43.50;98483.81;5001494;28;20058;-92
2022/04/25 02:05:47;;;;;;;13.90;3.00;;;;;;;17.86;43.37;98477.53;5002152;28;20033;-92
2022/04/25 02:08:13;;;;;;;26.08;3.33;;;;;;;17.85;43.44;98475.97;5001589;28;20021;-92
2022/04/25 02:10:38;;;;;;;23.55;3.10;;;;;;;17.80;43.73;98467.19;5018528;28;20025;-92
2022/04/25 02:13:04;;;;;;;20.85;3.50;;;;;;;17.84;44.27;98477.09;5001468;28;20036;-91
2022/04/25 02:15:29;;;;;;;16.25;3.33;;;;;;;17.80;43.59;98469.91;5001690;28;20022;-93
2022/04/25 02:17:55;;;;;;;18.58;3.00;;;;;;;17.78;43.58;98468.34;5000903;28;20029;-92
2022/04/25 02:20:20;;;;;;;23.73;3.65;;;;;;;17.73;43.47;98465.81;5001351;28;20026;-91
2022/04/25 02:22:47;;;;;;;12.35;3.20;;;;;;;17.75;43.47;98479.88;5001018;28;20033;-93
2022/04/25 02:25:13;;;;;;;17.30;3.50;;;;;;;17.72;43.87;98480.56;5001759;28;20025;-92
2022/04/25 02:27:38;;;;;;;18.73;3.53;;;;;;;17.68;43.79;98470.66;5001342;28;20052;-92
2022/04/25 02:30:04;;;;;;;23.77;3.50;;;;;;;17.70;43.60;98482.03;5002840;28;20028;-92
2022/04/25 02:32:30;;;;;;;17.45;3.22;;;;;;;17.71;43.59;98475.47;5005080;28;20075;-93
2022/04/25 02:34:56;;;;;;;19.00;3.50;;;;;;;17.65;43.47;98479.53;5006582;28;20024;-93
2022/04/25 02:37:22;;;;;;;20.58;3.53;;;;;;;17.58;43.32;98478.16;5006331;28;20030;-93
2022/04/25 02:39:47;;;;;;;13.27;2.85;;;;;;;17.60;43.31;98475.09;5006499;28;20021;-92
2022/04/25 02:42:13;;;;;;;15.57;3.42;;;;;;;17.61;43.23;98482.13;5005330;28;20476;-92
2022/04/25 02:44:38;;;;;;;19.20;3.67;;;;;;;17.58;43.75;98472.72;5005436;28;20037;-92
2022/04/25 02:47:04;;;;;;;19.20;3.60;;;;;;;17.58;43.63;98478.16;5005580;28;20017;-93
2022/04/25 02:49:29;;;;;;;17.55;3.50;;;;;;;17.57;43.97;98470.31;5021693;28;20033;-92
2022/04/25 02:51:55;;;;;;;18.77;4.13;;;;;;;17.48;43.93;98480.50;5021054;28;20396;-91
2022/04/25 02:54:20;;;;;;;19.48;3.55;;;;;;;17.45;43.72;98470.28;5022015;28;20029;-92
2022/04/25 02:56:46;;;;;;;21.10;3.78;;;;;;;17.49;43.83;98482.91;5022413;28;20036;-93
2022/04/25 02:59:12;;;;;;;15.85;3.70;;;;;;;17.42;43.85;98471.75;5022505;28;20018;-92
2022/04/25 03:01:38;;;;;;;25.55;4.28;;;;;;;17.38;44.06;98474.34;5021671;28;20506;-92
2022/04/25 03:04:04;;;;;;;15.30;3.85;;;;;;;17.41;44.25;98482.97;5021837;28;20025;-92
2022/04/25 03:06:29;;;;;;;16.45;3.78;;;;;;;17.40;44.48;98479.47;5021343;28;20068;-93
2022/04/25 03:08:54;;;;;;;16.27;4.28;;;;;;;17.37;44.14;98485.59;5021223;28;20415;-92
2022/04/25 03:11:20;;;;;;;13.68;3.13;;;;;;;17.40;44.16;98493.06;5037281;28;20032;-91
2022/04/25 03:13:45;;;;;;;13.43;3.10;;;;;;;17.34;43.86;98486.25;5020387;28;20037;-92
2022/04/25 03:16:11;;;;;;;17.85;3.45;;;;;;;17.33;44.05;98488.19;5021125;28;20036;-92
2022/04/25 03:18:36;;;;;;;19.20;3.50;;;;;;;17.40;43.96;98501.22;5037450;28;20009;-91
2022/04/25 03:21:02;;;;;;;11.57;2.83;;;;;;;17.33;44.09;98490.91;5020813;28;20095;-90
2022/04/25 03:23:27;;;;;;;19.08;3.78;;;;;;;17.29;44.06;98491.91;5020601;28;20034;-92
2022/04/25 03:25:53;;;;;;;14.48;3.60;;;;;;;17.25;44.22;98480.91;5004899;28;20529;-91
2022/04/25 03:28:19;;;;;;;20.45;3.63;;;;;;;17.24;44.19;98492.88;5021650;28;20037;-91
2022/04/25 03:30:44;;;;;;;21.50;3.40;;;;;;;17.30;44.19;98499.72;5021650;28;20052;-90
2022/04/25 03:33:11;;;;;;;14.57;3.60;;;;;;;17.24;44.19;98489.38;5020633;28;20025;-92
2022/04/25 03:35:40;;;;;;;20.00;3.45;;;;;;;17.22;44.71;98484.25;5021177;28;20403;-92
2022/04/25 03:38:07;;;;;;;17.88;3.75;;;;;;;17.23;44.91;98483.16;5037441;28;20033;-92
2022/04/25 03:40:34;;;;;;;21.70;4.45;;;;;;;17.06;46.44;98492.25;5004962;28;20029;-93
2022/04/25 03:43:00;;;;;;;18.70;4.15;;;;;;;17.10;46.23;98498.63;5019917;28;20120;-93
2022/04/25 03:45:25;;;;;;;16.55;4.45;;;;;;;17.07;46.17;98493.06;5021169;28;20037;-93
2022/04/25 03:47:51;;;;;;;13.93;4.65;;;;;;;17.04;46.18;98485.56;5020785;28;20037;-93
2022/04/25 03:50:16;;;;;;;15.95;3.95;;;;;;;17.04;46.02;98491.00;5004588;28;20021;-93
2022/04/25 03:52:43;;;;;;;21.27;3.83;;;;;;;17.08;45.71;98498.16;5019635;28;20033;-92
2022/04/25 03:58:00;;;;;;;24.30;3.72;;;;;;;17.05;45.37;98487.16;5022622;28;20107;-92
2022/04/25 04:00:25;;;;;;;24.30;4.15;;;;;;;17.13;45.59;98491.72;5004883;28;20029;-92
2022/04/25 04:02:51;;;;;;;19.95;3.72;;;;;;;17.12;44.98;98490.94;5037010;28;20028;-91
2022/04/25 04:05:17;;;;;;;14.23;2.95;;;;;;;17.26;44.44;98506.16;5020395;28;20021;-92
2022/04/25 04:07:43;;;;;;;21.38;3.80;;;;;;;17.36;44.68;98503.03;5019503;28;20112;-92
2022/04/25 04:10:09;;;;;;;12.75;3.58;;;;;;;17.46;43.94;98499.91;5037874;28;20105;-92
2022/04/25 04:12:35;;;;;;;19.73;3.97;;;;;;;17.60;44.22;98506.94;5036868;28;20091;-92
2022/04/25 04:15:07;;;;;;;32.40;11.00;;;;;;;17.68;43.89;98501.44;5036946;28;20092;-92
2022/04/25 04:17:33;;;;;;;20.20;5.70;;;;;;;17.75;43.39;98504.38;5019521;28;20026;-93
2022/04/25 04:19:59;;;;;;;27.15;4.65;;;;;;;17.83;43.39;98508.19;5037054;28;20036;-92
2022/04/25 04:22:29;;;;;;;17.48;3.50;;;;;;;17.91;43.20;98504.56;5019908;28;20032;-92
2022/04/25 04:25:00;;;;;;;16.83;4.07;;;;;;;17.93;46.45;98507.75;5037037;28;20045;-91
2022/04/25 04:27:25;;;;;;;17.13;3.67;;;;;;;17.79;45.78;98499.06;5004194;28;20063;-92
2022/04/25 04:29:50;;;;;;;22.67;4.47;;;;;;;17.90;46.01;98502.97;5019302;28;20033;-92
2022/04/25 04:32:16;;;;;;;24.42;5.05;;;;;;;17.96;46.51;98512.50;5003847;28;20022;-92
2022/04/25 04:34:42;;;;;;;27.48;4.35;;;;;;;18.03;45.89;98505.69;5020648;28;20032;-92
2022/04/25 04:37:07;;;;;;;23.83;4.53;;;;;;;18.06;45.74;98505.81;5003984;28;20094;-92
2022/04/25 04:39:33;;;;;;;15.43;3.22;;;;;;;18.26;43.83;98508.78;5018443;28;20029;-92
2022/04/25 04:41:58;;;;;;;14.30;3.75;;;;;;;18.24;44.92;98498.25;5019516;28;20033;-91
2022/04/25 04:44:24;;;;;;;19.70;3.72;;;;;;;18.39;43.33;98496.75;5036569;28;20021;-92
2022/04/25 04:46:49;;;;;;;27.25;4.13;;;;;;;18.45;44.56;98500.03;5019932;28;20025;-91
2022/04/25 04:49:15;;;;;;;68.80;47.28;;;;;;;18.57;43.65;98491.84;5035291;28;20028;-91
2022/04/25 04:51:42;;;;;;;23.63;8.13;;;;;;;18.65;43.31;98501.03;5020536;28;20499;-91
2022/04/25 04:54:08;;;;;;;13.73;3.85;;;;;;;18.73;43.32;98492.72;5019300;28;20092;-93
2022/04/25 04:56:33;;;;;;;22.02;3.83;;;;;;;18.69;42.85;98478.19;5019951;28;20025;-92
2022/04/25 04:58:59;;;;;;;16.77;3.50;;;;;;;18.74;42.37;98491.59;5018656;28;20032;-92
2022/04/25 05:01:26;;;;;;;18.67;3.35;;;;;;;18.75;42.49;98476.00;5035628;28;20036;-92
2022/04/25 05:03:58;;;;;;;24.67;4.88;;;;;;;18.89;42.44;98492.03;5003039;28;20025;-92
2022/04/25 05:06:27;;;;;;;20.13;3.80;;;;;;;18.96;41.47;98497.69;5018463;28;20442;-92
2022/04/25 05:08:53;;;;;;;23.95;4.15;;;;;;;19.01;41.55;98496.66;5035091;28;20017;-92
2022/04/25 05:11:19;;;;;;;22.73;4.35;;;;;;;18.95;44.02;98477.81;5001142;28;20035;-93
2022/04/25 05:13:44;;;;;;;22.95;4.65;;;;;;;18.94;43.50;98468.03;5002901;28;20029;-94
2022/04/25 05:16:10;;;;;;;18.98;3.75;;;;;;;18.85;43.06;98486.47;5002250;28;20124;-91
2022/04/25 05:18:36;;;;;;;28.80;3.97;;;;;;;18.90;42.64;98475.31;5018429;28;20025;-91
2022/04/25 05:21:01;;;;;;;17.15;5.72;;;;;;;18.90;43.07;98467.13;5017131;28;20021;-92
2022/04/25 05:23:27;;;;;;;20.08;4.18;;;;;;;18.80;43.40;98459.47;5001788;28;20032;-91
2022/04/25 05:25:54;;;;;;;20.13;4.25;;;;;;;18.91;43.94;98463.28;5034832;28;20400;-92
2022/04/25 05:28:20;;;;;;;18.90;4.78;;;;;;;19.05;43.79;98471.06;5017538;28;20025;-93
2022/04/25 05:30:46;;;;;;;21.65;4.57;;;;;;;19.07;42.22;98466.06;5019045;28;20025;-91
2022/04/25 05:33:12;;;;;;;16.95;3.60;;;;;;;19.16;41.51;98468.63;5018717;28;20025;-91
2022/04/25 05:35:38;;;;;;;18.08;3.00;;;;;;;19.24;41.70;98477.81;5017722;28;20025;-92
2022/04/25 05:38:06;;;;;;;15.65;3.65;;;;;;;19.34;41.04;98480.03;5017025;28;20557;-92
2022/04/25 05:40:31;;;;;;;17.58;3.88;;;;;;;19.37;41.30;98474.66;5017708;28;20025;-91
2022/04/25 05:42:57;;;;;;;16.95;3.78;;;;;;;19.47;41.06;98478.06;5019591;28;20494;-89
2022/04/25 05:45:24;;;;;;;20.17;4.63;;;;;;;19.49;41.24;98475.78;5017020;28;20519;-92
2022/04/25 05:47:51;;;;;;;21.90;5.05;;;;;;;19.62;41.42;98484.69;5013699;28;20550;-92
2022/04/25 05:53:01;;;;;;;22.70;5.20;;;;;;;19.84;39.89;98489.59;5014448;28;20403;-91
2022/04/25 05:55:28;;;;;;;29.33;8.00;;;;;;;19.97;39.50;98491.06;5030062;28;20017;-90
2022/04/25 05:57:54;;;;;;;25.00;5.90;;;;;;;20.12;38.77;98486.75;5013581;28;20061;-89
2022/04/25 06:00:19;;;;;;;29.75;5.28;;;;;;;20.32;38.80;98495.03;4997795;28;20028;-92
2022/04/25 06:02:45;;;;;;;26.95;5.60;;;;;;;20.44;38.81;98497.66;5013900;28;20084;-91
2022/04/25 06:05:11;;;;;;;20.13;4.97;;;;;;;20.51;38.45;98499.75;4999464;28;20018;-92
2022/04/25 06:07:37;;;;;;;22.75;4.30;;;;;;;20.59;38.34;98504.28;5001275;28;20030;-93
2022/04/25 06:10:04;;;;;;;17.98;3.75;;;;;;;20.69;38.22;98502.91;5001900;28;20121;-92
2022/04/25 06:12:29;;;;;;;21.10;3.97;;;;;;;20.82;38.51;98511.81;5021821;28;20025;-92
2022/04/25 06:14:56;;;;;;;19.38;3.88;;;;;;;20.89;37.40;98514.69;5019188;28;20038;-92
2022/04/25 06:17:21;;;;;;;23.65;3.97;;;;;;;20.89;37.45;98515.47;5020367;28;20033;-92
2022/04/25 06:19:47;;;;;;;20.95;3.83;;;;;;;20.91;37.61;98515.13;5002646;28;20034;-90
2022/04/25 06:22:12;;;;;;;15.73;3.70;;;;;;;20.97;38.15;98519.94;5003192;28;20025;-91
2022/04/25 06:24:38;;;;;;;24.35;3.40;;;;;;;21.01;37.53;98524.72;5018076;28;20079;-91
2022/04/25 06:27:08;;;;;;;22.38;4.47;;;;;;;21.08;37.66;98531.09;5002782;28;20033;-91
2022/04/25 06:29:33;;;;;;;21.17;4.32;;;;;;;21.07;37.79;98534.22;5020028;28;20030;-92
2022/04/25 06:32:02;;;;;;;37.03;4.97;;;;;;;21.08;38.41;98539.31;5003154;28;20036;-92
2022/04/25 06:34:28;;;;;;;27.35;4.93;;;;;;;21.11;37.53;98535.09;5002215;28;20112;-90
2022/04/25 06:36:53;;;;;;;25.77;4.63;;;;;;;21.15;37.76;98535.97;5017608;28;20480;-91
2022/04/25 06:39:19;;;;;;;28.50;4.50;;;;;;;21.23;37.65;98545.09;5002185;28;20021;-91
2022/04/25 06:41:44;;;;;;;22.85;4.53;;;;;;;21.20;37.92;98530.97;5018642;28;20022;-91
2022/04/25 06:44:09;;;;;;;27.20;4.65;;;;;;;21.26;38.92;98531.47;5002188;28;20018;-90
2022/04/25 06:46:35;;;;;;;46.17;6.03;;;;;;;21.31;39.03;98530.41;5004328;28;20099;-91
2022/04/25 06:51:44;;;;;;;18.85;3.70;;;;;;;21.49;36.51;98536.25;5024316;28;20059;-91
2022/04/25 06:54:10;;;;;;;31.35;4.30;;;;;;;21.38;38.34;98538.78;5005786;28;20021;-92
2022/04/25 06:56:35;;;;;;;17.52;3.90;;;;;;;21.49;37.62;98531.56;5005725;28;20040;-92
2022/04/25 06:59:01;;;;;;;19.63;3.95;;;;;;;21.50;38.19;98524.94;5006661;28;20037;-92
2022/04/25 07:01:26;;;;;;;27.58;4.50;;;;;;;21.68;38.26;98538.97;5008214;28;20030;-92
2022/04/25 07:03:52;;;;;;;23.02;3.58;;;;;;;21.76;38.03;98534.41;5024636;28;20442;-91
2022/04/25 07:06:17;;;;;;;25.75;4.55;;;;;;;21.82;37.73;98538.44;5026676;28;20040;-90
2022/04/25 07:08:43;;;;;;;53.28;6.57;;;;;;;21.85;38.76;98540.47;5025321;28;20021;-93
2022/04/25 07:11:08;;;;;;;26.15;3.40;;;;;;;21.89;38.25;98533.06;5007240;28;20033;-93
2022/04/25 07:13:34;;;;;;;19.75;3.55;;;;;;;22.01;38.23;98540.34;5007929;28;20029;-93
2022/04/25 07:15:59;;;;;;;21.85;4.03;;;;;;;22.08;37.50;98536.94;5008336;28;20018;-92
2022/04/25 07:18:25;;;;;;;19.13;3.63;;;;;;;22.11;38.61;98534.25;5025658;28;20041;-94
2022/04/25 07:20:50;;;;;;;14.15;3.85;;;;;;;22.11;38.68;98530.72;5026020;28;20021;-93
2022/04/25 07:28:48;;;;;;;28.50;4.68;;;;;;;22.29;38.27;98528.31;5025593;28;20083;-93
2022/04/25 07:28:57;;;;;;;23.27;3.85;;;;;;;22.38;38.58;98529.63;5027618;28;20033;-94
2022/04/25 07:31:23;;;;;;;17.85;3.65;;;;;;;22.49;38.47;98529.00;5014047;28;20048;-94
2022/04/25 07:33:49;;;;;;;16.98;3.10;;;;;;;22.48;37.98;98522.72;5008283;28;20028;-92
2022/04/25 07:36:15;;;;;;;16.13;3.45;;;;;;;22.53;37.63;98518.88;5023016;28;20503;-92
2022/04/25 07:38:40;;;;;;;19.80;3.53;;;;;;;22.59;37.27;98528.38;5006839;28;20419;-93
2022/04/25 07:41:07;;;;;;;26.65;4.10;;;;;;;22.72;37.21;98529.75;5025179;28;20021;-93
2022/04/25 07:43:36;;;;;;;17.40;3.22;;;;;;;22.82;36.51;98527.53;5007232;28;20103;-93
2022/04/25 07:46:02;;;;;;;23.90;3.67;;;;;;;22.86;36.31;98531.09;5003865;28;20041;-92
2022/04/25 07:48:28;;;;;;;17.02;3.72;;;;;;;22.93;36.74;98532.00;5021791;28;20064;-93
2022/04/25 07:50:54;;;;;;;24.45;4.07;;;;;;;23.07;36.60;98527.88;5023571;28;20037;-92
2022/04/25 07:53:20;;;;;;;19.90;3.72;;;;;;;23.24;35.61;98540.25;5039611;28;20049;-92
2022/04/25 07:55:45;;;;;;;22.02;4.22;;;;;;;23.24;34.82;98521.81;5021655;28;20087;-91
2022/04/25 07:58:11;;;;;;;21.20;3.67;;;;;;;23.31;34.31;98527.41;5005311;28;20384;-93
2022/04/25 08:00:40;;;;;;;19.75;3.80;;;;;;;23.41;34.27;98523.19;5022712;28;20044;-92
2022/04/25 08:03:06;;;;;;;17.02;3.47;;;;;;;23.49;34.87;98524.88;5004529;28;20029;-92
2022/04/25 08:05:31;;;;;;;22.85;4.00;;;;;;;23.44;34.80;98513.41;5002965;28;20017;-91
2022/04/25 08:07:57;;;;;;;17.42;3.80;;;;;;;23.47;34.92;98510.72;5008021;28;20056;-92
2022/04/25 08:10:23;;;;;;;18.15;3.70;;;;;;;23.58;33.99;98517.09;5021959;28;20030;-93
2022/04/25 08:18:16;;;;;;;19.13;3.85;;;;;;;23.70;33.18;98505.06;5023755;28;20044;-92
2022/04/25 08:20:43;;;;;;;25.50;3.50;;;;;;;23.74;33.07;98496.81;5002522;28;20030;-89
2022/04/25 08:23:09;;;;;;;22.73;5.70;;;;;;;23.90;33.10;98499.38;5003340;28;20021;-93
2022/04/25 08:25:36;;;;;;;20.13;4.32;;;;;;;23.99;33.56;98497.88;5004153;28;20021;-92
2022/04/25 08:28:01;;;;;;;29.27;4.10;;;;;;;24.14;33.75;98498.00;5003369;28;20025;-91
2022/04/25 08:30:28;;;;;;;29.20;4.85;;;;;;;24.15;33.55;98491.31;5020916;28;20087;-89
2022/04/25 08:32:55;;;;;;;20.55;4.60;;;;;;;24.18;33.18;98482.31;5020492;28;20032;-92
2022/04/25 08:35:21;;;;;;;19.98;4.15;;;;;;;24.36;33.55;98499.75;5005102;28;20175;-93
2022/04/25 08:37:47;;;;;;;23.98;4.13;;;;;;;24.38;34.40;98491.09;5020919;28;20029;-92
2022/04/25 08:40:13;;;;;;;15.32;3.50;;;;;;;24.45;33.38;98479.38;5019474;28;20025;-93
2022/04/25 08:42:38;;;;;;;21.40;3.97;;;;;;;24.50;33.46;98492.78;5017639;28;20021;-88
2022/04/25 08:45:07;;;;;;;15.77;3.42;;;;;;;24.45;33.10;98488.41;5033340;28;20095;-87
2022/04/25 08:47:37;;;;;;;22.27;3.53;;;;;;;24.46;33.16;98494.69;5017996;28;20028;-88
2022/04/25 08:50:03;;;;;;;25.48;4.05;;;;;;;24.46;32.83;98480.94;5017632;28;20487;-86
2022/04/25 08:52:30;;;;;;;24.60;3.97;;;;;;;24.45;32.21;98462.84;5034405;28;20087;-85
2022/04/25 08:54:57;;;;;;;19.02;3.70;;;;;;;24.38;32.64;98475.41;5033966;28;20017;-88
2022/04/25 08:57:25;;;;;;;18.77;3.92;;;;;;;24.29;32.25;98474.94;5017948;28;20038;-87
2022/04/25 08:59:52;;;;;;;18.77;3.33;;;;;;;24.43;32.69;98476.22;5017093;28;20026;-87
2022/04/25 09:02:17;;;;;;;18.10;3.75;;;;;;;24.48;32.95;98471.13;5017066;28;20403;-88
2022/04/25 09:04:46;;;;;;;25.55;4.20;;;;;;;24.58;33.05;98464.13;5016364;28;20029;-87
2022/04/25 09:07:11;;;;;;;19.08;3.72;;;;;;;24.51;32.63;98459.38;5016923;28;20488;-88
2022/04/25 09:09:37;;;;;;;20.23;4.43;;;;;;;24.59;32.41;98462.94;5001594;28;20071;-87
2022/04/25 09:12:12;;;;;;;24.83;3.67;;;;;;;24.55;32.29;98465.69;5000711;28;20033;-87
2022/04/25 09:14:40;;;;;;;22.65;3.50;;;;;;;24.63;32.38;98461.00;5017859;28;20462;-89
2022/04/25 09:17:06;;;;;;;18.52;3.60;;;;;;;24.69;31.87;98456.72;5001211;28;20041;-89
2022/04/25 09:19:32;;;;;;;19.23;3.30;;;;;;;24.75;32.42;98454.38;5000698;28;20415;-87
2022/04/25 09:21:58;;;;;;;19.52;3.40;;;;;;;24.67;31.44;98461.03;5033308;28;20029;-87
2022/04/25 09:24:29;;;;;;;18.48;3.80;;;;;;;24.72;30.87;98466.19;5001367;28;20021;-88
2022/04/25 09:27:06;;;;;;;20.90;3.90;;;;;;;24.88;31.09;98472.16;5018207;28;20028;-87
2022/04/25 09:29:32;;;;;;;20.52;3.83;;;;;;;24.81;30.58;98464.63;5019136;28;20145;-87
2022/04/25 09:32:02;;;;;;;16.20;3.22;;;;;;;24.82;30.65;98457.19;5020999;28;20053;-92
2022/04/25 09:37:16;;;;;;;19.85;5.00;;;;;;;24.95;30.55;98460.38;5028183;28;20120;-92
2022/04/25 09:39:41;;;;;;;26.58;4.30;;;;;;;24.91;29.47;98460.38;5004801;28;20025;-91
2022/04/25 09:42:07;;;;;;;19.08;4.05;;;;;;;25.01;29.75;98458.84;5025532;28;20032;-93
2022/04/25 09:44:56;;;;;;;18.77;3.47;;;;;;;25.04;30.33;98471.03;5005013;28;20052;-91
2022/04/25 09:47:27;;;;;;;20.77;3.83;;;;;;;25.17;29.77;98464.81;5020559;28;20124;-90
2022/04/25 09:50:08;;;;;;;18.35;3.70;;;;;;;25.15;30.42;98460.84;5038905;28;20021;-92
2022/04/25 09:52:54;;;;;;;18.10;3.55;;;;;;;25.25;30.22;98453.81;5019769;28;20411;-92
2022/04/25 09:55:20;;;;;;;15.75;3.70;;;;;;;25.16;29.95;98443.13;5021464;28;20021;-92
2022/04/25 09:57:46;;;;;;;18.08;3.03;;;;;;;25.15;30.33;98436.03;5020301;28;20056;-93
2022/04/25 10:00:14;;;;;;;23.05;3.90;;;;;;;25.31;29.98;98457.78;5017116;28;20029;-92
2022/04/25 10:02:40;;;;;;;18.15;3.08;;;;;;;25.31;29.73;98444.00;5035381;28;20041;-93
2022/04/25 10:05:11;;;;;;;25.42;3.63;;;;;;;25.33;29.55;98445.16;5035689;28;20044;-92
2022/04/25 10:07:37;;;;;;;17.00;3.88;;;;;;;25.44;29.72;98447.16;5018377;28;20021;-93
2022/04/25 10:10:02;;;;;;;19.85;3.03;;;;;;;25.41;28.67;98435.75;5001607;28;20033;-94
2022/04/25 10:12:28;;;;;;;20.10;3.50;;;;;;;25.42;28.71;98453.06;5002670;28;20014;-93
2022/04/25 10:14:53;;;;;;;15.88;3.15;;;;;;;25.43;29.09;98443.63;5018337;28;20025;-93
2022/04/25 10:17:18;;;;;;;16.27;3.58;;;;;;;25.55;28.35;98440.50;5018382;28;20028;-92
2022/04/25 10:19:44;;;;;;;19.67;3.20;;;;;;;25.57;28.41;98432.63;5017908;28;20025;-91
2022/04/25 10:22:09;;;;;;;13.88;3.00;;;;;;;25.57;28.15;98435.38;5018483;28;20025;-92
2022/04/25 10:24:36;;;;;;;18.63;2.92;;;;;;;25.52;28.29;98432.22;5019477;28;20013;-93
2022/04/25 10:27:07;;;;;;;17.83;2.88;;;;;;;25.55;28.82;98432.22;5019093;28;20025;-93
2022/04/25 10:29:34;;;;;;;19.20;2.95;;;;;;;25.62;28.57;98439.72;5018068;28;20026;-91
2022/04/25 10:32:00;;;;;;;17.95;3.35;;;;;;;25.59;27.84;98429.47;5002577;28;20030;-92
2022/04/25 10:35:01;;;;;;;22.42;3.35;;;;;;;25.64;28.97;98440.09;5019087;28;20026;-94
2022/04/25 10:37:36;;;;;;;19.27;3.08;;;;;;;25.70;28.73;98435.00;4981270;28;20096;-94
2022/04/25 10:40:07;;;;;;;14.20;3.20;;;;;;;25.58;29.06;98428.66;5019564;28;20021;-93
2022/04/25 10:45:16;;;;;;;12.70;3.47;;;;;;;25.75;29.04;98443.69;5022465;28;20072;-93
2022/04/25 10:47:58;;;;;;;20.88;3.42;;;;;;;25.62;29.26;98434.19;5003989;28;20013;-91
2022/04/25 10:50:24;;;;;;;17.00;3.10;;;;;;;25.72;29.30;98438.94;5005987;28;20056;-92
2022/04/25 10:55:20;;;;;;;17.95;3.15;;;;;;;25.74;29.58;98444.84;5020706;28;20185;-87
2022/04/25 10:58:04;;;;;;;17.25;2.60;;;;;;;25.71;29.06;98442.06;5038660;28;20064;-87
2022/04/25 11:00:41;;;;;;;19.55;2.92;;;;;;;25.70;28.94;98451.53;5037178;28;20024;-87
2022/04/25 11:03:10;;;;;;;20.65;2.70;;;;;;;25.61;28.41;98438.94;5036802;28;20017;-86
2022/04/25 11:05:36;;;;;;;20.13;3.13;;;;;;;25.59;29.11;98438.53;5036311;28;20422;-89
2022/04/25 11:08:20;;;;;;;15.43;3.08;;;;;;;25.67;28.69;98444.03;5018680;28;20029;-89
2022/04/25 11:10:57;;;;;;;13.52;2.80;;;;;;;25.79;28.89;98438.13;5036575;28;20032;-86
2022/04/25 11:13:28;;;;;;;18.17;2.83;;;;;;;25.71;29.05;98439.31;5036685;28;20025;-88
2022/04/25 11:16:16;;;;;;;16.98;2.95;;;;;;;25.75;29.43;98424.38;5019171;28;20399;-91
2022/04/25 11:18:42;;;;;;;16.42;2.92;;;;;;;25.88;28.94;98437.75;5005596;28;20025;-93
2022/04/25 11:21:16;;;;;;;11.40;2.55;;;;;;;25.89;28.80;98431.06;5004357;28;20029;-94
2022/04/25 11:23:44;;;;;;;14.68;2.80;;;;;;;25.82;29.13;98437.38;5006829;28;20005;-91
2022/04/25 11:26:25;;;;;;;16.00;2.83;;;;;;;25.88;28.96;98440.50;5020986;28;20080;-93
2022/04/25 11:29:03;;;;;;;21.67;2.97;;;;;;;25.79;28.42;98438.13;5022531;28;20025;-91
2022/04/25 11:31:29;;;;;;;20.70;3.25;;;;;;;25.82;28.58;98431.84;5039016;28;20100;-93
2022/04/25 11:34:02;;;;;;;24.63;3.50;;;;;;;25.81;28.48;98424.75;5008620;28;20064;-94
2022/04/25 11:36:31;;;;;;;27.80;3.03;;;;;;;25.83;28.09;98427.91;5006780;28;20025;-92
2022/04/25 11:41:45;;;;;;;14.80;2.60;;;;;;;25.62;28.09;98425.94;5027451;28;20056;-95
2022/04/25 11:44:11;;;;;;;12.73;2.70;;;;;;;25.52;28.77;98424.72;5005556;28;20048;-92
2022/04/25 11:46:37;;;;;;;17.77;2.88;;;;;;;25.40;29.15;98422.34;5003524;28;20132;-91
2022/04/25 11:49:03;;;;;;;17.08;2.75;;;;;;;25.35;28.92;98433.78;5004728;28;20033;-92
2022/04/25 11:51:30;;;;;;;19.08;2.75;;;;;;;25.31;28.56;98428.25;5004259;28;20029;-92
2022/04/25 11:54:00;;;;;;;18.63;2.97;;;;;;;25.29;29.10;98449.88;5026732;28;20079;-92
2022/04/25 11:56:26;;;;;;;17.63;3.42;;;;;;;25.12;29.88;98434.84;5006767;28;20064;-89